Time;durP1;ratioP1;P1;durP2;ratioP2;P2;SDS_P1;SDS_P2;PMS_P1;PMS_P2;Temp;Humidity;BMP_temperature;BMP_pressure;BME280_temperature;BME280_humidity;BME280_pressure;Samples;Min_cycle;Max_cycle;Signal;HPM_P1;HPM_P2
2022/05/26 00:01:05;;;;;;;15.77;9.13;;;;;;;;;;5091952;28;20040;-62
2022/05/26 00:03:39;;;;;;;16.25;9.27;;;;;;;;;;5089293;28;20047;-63
2022/05/26 00:06:07;;;;;;;17.00;9.55;;;;;;;;;;5091014;28;20481;-63
2022/05/26 00:08:33;;;;;;;16.23;10.15;;;;;;;;;;5090199;28;20055;-64
2022/05/26 00:10:59;;;;;;;20.45;10.40;;;;;;;;;;5091597;28;20127;-62
2022/05/26 00:13:25;;;;;;;17.30;9.93;;;;;;;;;;5091580;28;20056;-62
2022/05/26 00:15:52;;;;;;;18.70;10.52;;;;;;;;;;5091592;28;20085;-62
2022/05/26 00:18:18;;;;;;;21.73;10.88;;;;;;;;;;5092350;28;20044;-62
2022/05/26 00:20:44;;;;;;;20.00;9.70;;;;;;;;;;5092354;28;20397;-62
2022/05/26 00:23:10;;;;;;;20.45;10.48;;;;;;;;;;5087810;28;20047;-62
2022/05/26 00:25:36;;;;;;;22.98;11.20;;;;;;;;;;5090372;28;20458;-62
2022/05/26 00:28:03;;;;;;;20.05;11.07;;;;;;;;;;5087035;28;20075;-63
2022/05/26 00:30:29;;;;;;;23.48;11.50;;;;;;;;;;5091300;28;20036;-62
2022/05/26 00:32:56;;;;;;;21.70;10.95;;;;;;;;;;5107377;22;20040;-61
2022/05/26 00:35:22;;;;;;;24.13;11.65;;;;;;;;;;5108755;28;20043;-60
2022/05/26 00:37:48;;;;;;;17.83;11.10;;;;;;;;;;5104480;27;20077;-61
2022/05/26 00:40:15;;;;;;;21.85;10.80;;;;;;;;;;5107900;28;20113;-61
2022/05/26 00:42:41;;;;;;;20.55;11.13;;;;;;;;;;5109459;28;20036;-60
2022/05/26 00:45:08;;;;;;;23.35;11.77;;;;;;;;;;5088965;28;20074;-61
2022/05/26 00:47:35;;;;;;;20.50;11.65;;;;;;;;;;5087990;28;20028;-61
2022/05/26 00:50:06;;;;;;;21.95;11.30;;;;;;;;;;5092834;28;20164;-60
2022/05/26 00:52:35;;;;;;;24.08;11.98;;;;;;;;;;5080481;28;20036;-61
2022/05/26 00:55:03;;;;;;;23.08;11.95;;;;;;;;;;5082469;28;20504;-60
2022/05/26 00:57:31;;;;;;;22.33;11.20;;;;;;;;;;5085801;28;20044;-63
2022/05/26 01:00:00;;;;;;;25.48;11.63;;;;;;;;;;5090195;28;20062;-62
2022/05/26 01:02:33;;;;;;;26.67;12.23;;;;;;;;;;5082841;28;20033;-62
2022/05/26 01:05:01;;;;;;;25.80;12.75;;;;;;;;;;5090099;28;20106;-62
2022/05/26 01:07:30;;;;;;;25.45;11.80;;;;;;;;;;5081555;28;20043;-62
2022/05/26 01:09:56;;;;;;;25.23;12.70;;;;;;;;;;5089600;28;20051;-62
2022/05/26 01:12:22;;;;;;;25.15;12.82;;;;;;;;;;5087298;28;20036;-62
2022/05/26 01:14:51;;;;;;;24.45;12.85;;;;;;;;;;5091717;28;20412;-62
2022/05/26 01:17:36;;;;;;;22.20;12.32;;;;;;;;;;5091643;28;20032;-62
2022/05/26 01:20:05;;;;;;;26.05;12.65;;;;;;;;;;5090802;28;20044;-62
2022/05/26 01:22:49;;;;;;;23.48;12.32;;;;;;;;;;5078835;28;20490;-62
2022/05/26 01:25:15;;;;;;;25.52;12.32;;;;;;;;;;5084959;28;20123;-62
2022/05/26 01:27:46;;;;;;;25.67;12.75;;;;;;;;;;5092677;28;20123;-62
2022/05/26 01:30:21;;;;;;;27.77;12.90;;;;;;;;;;5087361;28;20033;-62
2022/05/26 01:33:10;;;;;;;22.60;12.95;;;;;;;;;;5085171;28;20040;-63
2022/05/26 01:35:48;;;;;;;28.25;12.13;;;;;;;;;;5082674;28;20040;-62
2022/05/26 01:38:34;;;;;;;26.40;12.52;;;;;;;;;;5072390;28;20060;-62
2022/05/26 01:41:19;;;;;;;24.52;12.38;;;;;;;;;;5088806;28;20043;-62
2022/05/26 01:43:52;;;;;;;32.13;13.25;;;;;;;;;;5094731;28;20043;-62
2022/05/26 01:46:21;;;;;;;28.88;12.98;;;;;;;;;;5082314;28;20046;-62
2022/05/26 01:48:47;;;;;;;31.02;12.35;;;;;;;;;;5089611;28;20047;-62
2022/05/26 01:51:17;;;;;;;27.48;13.25;;;;;;;;;;5072290;28;20066;-62
2022/05/26 01:53:46;;;;;;;27.67;13.82;;;;;;;;;;5087835;28;20134;-62
2022/05/26 01:56:19;;;;;;;32.70;13.63;;;;;;;;;;5084916;28;20114;-62
2022/05/26 01:59:05;;;;;;;28.83;14.63;;;;;;;;;;5089856;28;20047;-62
2022/05/26 02:01:34;;;;;;;30.10;14.15;;;;;;;;;;5085696;28;20638;-62
2022/05/26 02:04:02;;;;;;;28.88;13.10;;;;;;;;;;5091046;28;20028;-62
2022/05/26 02:06:28;;;;;;;27.08;13.27;;;;;;;;;;5090382;28;20043;-62
2022/05/26 02:09:02;;;;;;;26.90;13.77;;;;;;;;;;5095789;28;20059;-62
2022/05/26 02:11:28;;;;;;;27.95;13.48;;;;;;;;;;5086729;28;20039;-62
2022/05/26 02:13:59;;;;;;;25.67;13.05;;;;;;;;;;5087189;28;20228;-62
2022/05/26 02:16:37;;;;;;;28.05;14.07;;;;;;;;;;5079274;28;20051;-62
2022/05/26 02:19:09;;;;;;;32.55;14.77;;;;;;;;;;5087985;28;20044;-62
2022/05/26 02:21:38;;;;;;;30.10;13.68;;;;;;;;;;5081956;28;20032;-62
2022/05/26 02:24:17;;;;;;;34.55;13.65;;;;;;;;;;5081781;28;20055;-62
2022/05/26 02:26:43;;;;;;;27.48;13.80;;;;;;;;;;5088933;28;20061;-62
2022/05/26 02:31:54;;;;;;;35.53;14.02;;;;;;;;;;5082478;28;20079;-62
2022/05/26 02:34:21;;;;;;;27.83;12.82;;;;;;;;;;5081218;28;20356;-62
2022/05/26 02:36:50;;;;;;;31.90;14.52;;;;;;;;;;5089910;28;20047;-62
2022/05/26 02:39:16;;;;;;;33.38;14.63;;;;;;;;;;5082083;28;20039;-61
2022/05/26 02:41:42;;;;;;;34.22;13.85;;;;;;;;;;5088518;28;20032;-61
2022/05/26 02:44:08;;;;;;;31.00;13.88;;;;;;;;;;5090376;28;20126;-61
2022/05/26 02:46:53;;;;;;;26.25;13.40;;;;;;;;;;5087226;28;20044;-61
2022/05/26 02:49:36;;;;;;;35.25;13.75;;;;;;;;;;5090076;28;20032;-61
2022/05/26 02:52:13;;;;;;;35.40;13.63;;;;;;;;;;5077228;28;20166;-61
2022/05/26 02:54:58;;;;;;;31.25;12.82;;;;;;;;;;5075260;28;20051;-62
2022/05/26 02:57:28;;;;;;;33.53;13.65;;;;;;;;;;5082282;28;20545;-62
2022/05/26 03:00:01;;;;;;;28.60;13.65;;;;;;;;;;5086459;28;20045;-62
2022/05/26 03:02:33;;;;;;;31.33;13.68;;;;;;;;;;5088105;28;20028;-62
2022/05/26 03:05:08;;;;;;;29.35;12.70;;;;;;;;;;5084765;28;20528;-61
2022/05/26 03:07:34;;;;;;;34.55;13.30;;;;;;;;;;5086283;28;20489;-61
2022/05/26 03:10:02;;;;;;;31.75;12.48;;;;;;;;;;5085265;28;20088;-62
2022/05/26 03:12:29;;;;;;;31.88;12.95;;;;;;;;;;5084432;28;20036;-61
2022/05/26 03:14:55;;;;;;;32.97;12.85;;;;;;;;;;5081503;28;20044;-61
2022/05/26 03:17:22;;;;;;;29.80;12.75;;;;;;;;;;5086763;28;20111;-61
2022/05/26 03:19:48;;;;;;;32.20;12.82;;;;;;;;;;5085610;28;20047;-62
2022/05/26 03:22:14;;;;;;;28.30;12.18;;;;;;;;;;5082857;28;20032;-62
2022/05/26 03:24:40;;;;;;;29.33;12.23;;;;;;;;;;5088410;28;20123;-61
2022/05/26 03:27:06;;;;;;;39.97;11.95;;;;;;;;;;5087875;28;20033;-62
2022/05/26 03:29:33;;;;;;;30.77;12.57;;;;;;;;;;5088061;28;20028;-61
2022/05/26 03:31:58;;;;;;;37.70;12.45;;;;;;;;;;5091738;28;20070;-61
2022/05/26 03:42:40;;;;;;;28.83;11.55;;;;;;;;;;5088418;28;20032;-62
2022/05/26 03:45:06;;;;;;;32.50;12.52;;;;;;;;;;5089939;28;20043;-61
2022/05/26 03:47:33;;;;;;;29.70;12.02;;;;;;;;;;5090416;28;20043;-61
2022/05/26 03:49:59;;;;;;;28.55;11.30;;;;;;;;;;5090249;28;20055;-62
2022/05/26 03:52:25;;;;;;;31.50;11.32;;;;;;;;;;5087817;28;20040;-62
2022/05/26 03:54:51;;;;;;;35.30;12.10;;;;;;;;;;5092121;28;20094;-62
2022/05/26 03:57:23;;;;;;;28.00;11.00;;;;;;;;;;5083403;28;20048;-62
2022/05/26 03:59:49;;;;;;;36.78;12.23;;;;;;;;;;5082893;28;20141;-61
2022/05/26 04:02:15;;;;;;;27.00;10.65;;;;;;;;;;5084857;28;20090;-62
2022/05/26 04:04:41;;;;;;;32.80;10.65;;;;;;;;;;5083223;28;20036;-61
2022/05/26 04:07:08;;;;;;;34.17;9.75;;;;;;;;;;5089660;28;20043;-61
2022/05/26 04:09:34;;;;;;;32.10;9.90;;;;;;;;;;5092402;28;20039;-62
2022/05/26 04:12:00;;;;;;;32.33;10.00;;;;;;;;;;5085316;28;20048;-61
2022/05/26 04:14:26;;;;;;;28.23;9.93;;;;;;;;;;5091362;28;20047;-61
2022/05/26 04:16:52;;;;;;;29.05;9.23;;;;;;;;;;5092553;28;20047;-61
2022/05/26 04:19:18;;;;;;;36.10;10.00;;;;;;;;;;5089917;28;20032;-61
2022/05/26 04:24:28;;;;;;;32.42;8.70;;;;;;;;;;5089848;28;20536;-62
2022/05/26 04:26:54;;;;;;;23.75;7.30;;;;;;;;;;5081051;28;20040;-61
2022/05/26 04:29:23;;;;;;;29.30;7.82;;;;;;;;;;5090220;28;20042;-62
2022/05/26 04:31:49;;;;;;;26.70;7.38;;;;;;;;;;5090622;28;20516;-61
2022/05/26 04:34:15;;;;;;;28.17;7.40;;;;;;;;;;5070343;28;20489;-62
2022/05/26 04:36:41;;;;;;;24.02;6.60;;;;;;;;;;5085901;28;20044;-62
2022/05/26 04:39:07;;;;;;;29.23;6.43;;;;;;;;;;5085810;28;20119;-62
2022/05/26 04:41:33;;;;;;;23.55;6.07;;;;;;;;;;5091847;28;20119;-61
2022/05/26 04:43:59;;;;;;;19.90;5.35;;;;;;;;;;5090512;28;20490;-62
2022/05/26 04:46:25;;;;;;;17.23;4.93;;;;;;;;;;5084228;28;20532;-61
2022/05/26 04:48:51;;;;;;;17.58;4.90;;;;;;;;;;5084708;28;20069;-61
2022/05/26 04:51:18;;;;;;;18.83;4.00;;;;;;;;;;5087563;28;20514;-62
2022/05/26 04:53:44;;;;;;;16.90;4.32;;;;;;;;;;5082970;28;20066;-62
2022/05/26 04:56:10;;;;;;;15.85;4.55;;;;;;;;;;5092263;28;20035;-62
2022/05/26 04:58:36;;;;;;;17.48;3.65;;;;;;;;;;5088418;28;20043;-62
2022/05/26 05:01:12;;;;;;;14.15;3.13;;;;;;;;;;5085695;28;20032;-62
2022/05/26 05:03:38;;;;;;;17.00;3.53;;;;;;;;;;5080231;28;20383;-62
2022/05/26 05:06:04;;;;;;;10.70;2.95;;;;;;;;;;5080351;28;20052;-62
2022/05/26 05:08:29;;;;;;;14.65;2.80;;;;;;;;;;5080713;28;20032;-62
2022/05/26 05:10:55;;;;;;;10.70;3.10;;;;;;;;;;5080645;28;20070;-62
2022/05/26 05:13:22;;;;;;;10.48;2.38;;;;;;;;;;5081813;28;20068;-62
2022/05/26 05:15:53;;;;;;;12.95;2.72;;;;;;;;;;5079309;28;20132;-62
2022/05/26 05:18:19;;;;;;;9.00;2.60;;;;;;;;;;5091647;28;20040;-62
2022/05/26 05:20:46;;;;;;;10.55;2.80;;;;;;;;;;5089629;28;20347;-62
2022/05/26 05:23:13;;;;;;;8.27;2.17;;;;;;;;;;5089266;28;20112;-62
2022/05/26 05:25:41;;;;;;;11.10;2.53;;;;;;;;;;5090708;28;20059;-61
2022/05/26 05:28:17;;;;;;;9.98;2.88;;;;;;;;;;5088657;28;20056;-61
2022/05/26 05:30:51;;;;;;;5.85;1.80;;;;;;;;;;5083621;28;20040;-61
2022/05/26 05:33:17;;;;;;;7.47;2.10;;;;;;;;;;5086765;28;20070;-62
2022/05/26 05:35:48;;;;;;;8.18;1.85;;;;;;;;;;5086991;28;20060;-61
2022/05/26 05:38:15;;;;;;;7.82;2.40;;;;;;;;;;5086817;28;20611;-61
2022/05/26 05:40:41;;;;;;;8.40;2.00;;;;;;;;;;5084984;28;20485;-61
2022/05/26 05:43:07;;;;;;;6.80;1.60;;;;;;;;;;5085889;28;20105;-62
2022/05/26 05:45:33;;;;;;;9.40;1.67;;;;;;;;;;5087610;28;20481;-61
2022/05/26 05:48:00;;;;;;;8.02;1.90;;;;;;;;;;5086209;28;20090;-61
2022/05/26 05:50:26;;;;;;;9.05;1.73;;;;;;;;;;5083824;28;20047;-62
2022/05/26 05:52:52;;;;;;;8.27;1.70;;;;;;;;;;5076960;28;20051;-61
2022/05/26 05:55:18;;;;;;;10.70;1.75;;;;;;;;;;5084689;28;20062;-62
2022/05/26 05:57:44;;;;;;;9.80;2.15;;;;;;;;;;5086379;28;20048;-61
2022/05/26 06:00:10;;;;;;;8.57;1.77;;;;;;;;;;5077638;28;20550;-62
2022/05/26 06:02:36;;;;;;;5.38;1.70;;;;;;;;;;5085157;28;20452;-61
2022/05/26 06:05:03;;;;;;;5.40;1.58;;;;;;;;;;5084560;28;20060;-61
2022/05/26 06:07:29;;;;;;;7.93;1.83;;;;;;;;;;5080034;28;20031;-61
2022/05/26 06:09:55;;;;;;;6.60;1.63;;;;;;;;;;5084002;28;20043;-62
2022/05/26 06:12:21;;;;;;;8.20;1.70;;;;;;;;;;5084560;28;20032;-61
2022/05/26 06:14:47;;;;;;;6.05;1.65;;;;;;;;;;5080382;28;20048;-61
2022/05/26 06:17:14;;;;;;;8.65;1.40;;;;;;;;;;5083725;28;20043;-62
2022/05/26 06:19:40;;;;;;;6.60;1.50;;;;;;;;;;5083531;28;20036;-62
2022/05/26 06:22:07;;;;;;;4.20;1.30;;;;;;;;;;5081495;28;20531;-61
2022/05/26 06:24:34;;;;;;;3.45;1.25;;;;;;;;;;5086598;28;20032;-61
2022/05/26 06:27:00;;;;;;;10.23;1.45;;;;;;;;;;5079931;28;20127;-61
2022/05/26 06:37:40;;;;;;;5.97;1.25;;;;;;;;;;5100570;28;20051;-63
2022/05/26 06:40:07;;;;;;;7.07;1.20;;;;;;;;;;5100418;28;20035;-63
2022/05/26 06:42:33;;;;;;;2.70;0.93;;;;;;;;;;5100463;28;20075;-63
2022/05/26 06:44:59;;;;;;;5.53;1.10;;;;;;;;;;5086737;28;20085;-63
2022/05/26 06:47:26;;;;;;;5.30;1.10;;;;;;;;;;5078632;28;20051;-63
2022/05/26 06:49:52;;;;;;;2.00;0.70;;;;;;;;;;5076019;28;20068;-63
2022/05/26 06:52:19;;;;;;;4.22;0.90;;;;;;;;;;5086030;28;20095;-63
2022/05/26 06:54:47;;;;;;;3.85;1.10;;;;;;;;;;5080239;28;20042;-63
2022/05/26 06:57:13;;;;;;;4.97;1.42;;;;;;;;;;5082108;28;20044;-63
2022/05/26 06:59:39;;;;;;;3.67;0.95;;;;;;;;;;5084491;28;20071;-63
2022/05/26 07:02:07;;;;;;;2.70;0.90;;;;;;;;;;5086313;28;20054;-63
2022/05/26 07:04:33;;;;;;;1.45;0.80;;;;;;;;;;5083479;28;20036;-63
2022/05/26 07:06:59;;;;;;;4.40;0.82;;;;;;;;;;5087298;28;20048;-63
2022/05/26 07:09:26;;;;;;;7.43;1.15;;;;;;;;;;5087721;28;20036;-63
2022/05/26 07:11:52;;;;;;;4.35;0.85;;;;;;;;;;5086945;28;20409;-63
2022/05/26 07:14:19;;;;;;;2.50;0.80;;;;;;;;;;5085059;28;20401;-63
2022/05/26 07:16:45;;;;;;;2.47;0.85;;;;;;;;;;5086742;28;20044;-63
2022/05/26 07:19:12;;;;;;;5.45;0.85;;;;;;;;;;5088555;28;20036;-63
2022/05/26 07:21:38;;;;;;;5.15;1.00;;;;;;;;;;5084227;28;20102;-63
2022/05/26 07:24:05;;;;;;;5.32;0.90;;;;;;;;;;5086691;28;20044;-63
2022/05/26 07:26:32;;;;;;;3.72;0.85;;;;;;;;;;5081708;28;20037;-63
2022/05/26 07:28:58;;;;;;;6.93;1.00;;;;;;;;;;5085183;28;20058;-63
2022/05/26 07:31:24;;;;;;;5.00;0.90;;;;;;;;;;5086169;28;20076;-63
2022/05/26 07:33:50;;;;;;;4.93;1.00;;;;;;;;;;5087959;28;20128;-63
2022/05/26 07:41:49;;;;;;;6.47;1.10;;;;;;;;;;5089661;28;20505;-63
2022/05/26 07:44:16;;;;;;;3.30;0.88;;;;;;;;;;5092028;28;20486;-63
2022/05/26 07:46:42;;;;;;;3.92;0.98;;;;;;;;;;5090814;28;20119;-64
2022/05/26 07:49:09;;;;;;;2.80;0.73;;;;;;;;;;5092594;28;20127;-64
2022/05/26 07:51:35;;;;;;;3.92;0.85;;;;;;;;;;5087947;28;20044;-64
2022/05/26 07:54:01;;;;;;;1.95;0.73;;;;;;;;;;5089514;28;20028;-63
2022/05/26 07:56:30;;;;;;;2.97;0.70;;;;;;;;;;5090872;28;20035;-63
2022/05/26 07:58:56;;;;;;;3.40;0.80;;;;;;;;;;5091881;28;20257;-63
2022/05/26 08:01:22;;;;;;;3.00;0.75;;;;;;;;;;5090618;28;20040;-63
2022/05/26 08:03:48;;;;;;;6.15;0.85;;;;;;;;;;5094129;28;20446;-64
2022/05/26 08:06:14;;;;;;;3.30;0.70;;;;;;;;;;5095644;28;20042;-64
2022/05/26 08:08:40;;;;;;;3.65;0.98;;;;;;;;;;5089760;28;20036;-63
2022/05/26 08:11:06;;;;;;;4.75;0.68;;;;;;;;;;5083565;28;21783;-64
2022/05/26 08:13:32;;;;;;;4.75;1.17;;;;;;;;;;5089483;28;20730;-63
2022/05/26 08:15:58;;;;;;;3.38;0.90;;;;;;;;;;5098201;28;20105;-64
2022/05/26 08:18:25;;;;;;;3.65;0.70;;;;;;;;;;5095566;28;20068;-63
2022/05/26 08:20:51;;;;;;;4.80;0.80;;;;;;;;;;5088956;28;20040;-64
2022/05/26 08:23:17;;;;;;;5.88;0.93;;;;;;;;;;5090490;28;20040;-63
2022/05/26 08:25:43;;;;;;;6.20;0.75;;;;;;;;;;5092035;28;20063;-64
2022/05/26 08:28:09;;;;;;;1.48;0.60;;;;;;;;;;5086417;28;20064;-64
2022/05/26 08:30:35;;;;;;;3.25;0.70;;;;;;;;;;5095670;28;20039;-64
2022/05/26 08:33:02;;;;;;;5.07;0.75;;;;;;;;;;5088728;28;20512;-63
2022/05/26 08:35:28;;;;;;;2.97;0.82;;;;;;;;;;5092064;28;20115;-63
2022/05/26 08:37:54;;;;;;;2.53;0.50;;;;;;;;;;5088101;28;20044;-63
2022/05/26 08:40:28;;;;;;;3.92;0.80;;;;;;;;;;5093729;28;20082;-63
2022/05/26 08:42:54;;;;;;;3.15;0.70;;;;;;;;;;5093987;28;20120;-63
2022/05/26 08:45:20;;;;;;;0.82;0.50;;;;;;;;;;5094774;28;20063;-63
2022/05/26 08:47:48;;;;;;;1.02;0.40;;;;;;;;;;5092258;28;20040;-63
2022/05/26 08:50:18;;;;;;;4.53;1.20;;;;;;;;;;5092899;28;20046;-63
2022/05/26 08:53:08;;;;;;;3.60;0.60;;;;;;;;;;5093096;28;20152;-64
2022/05/26 08:55:43;;;;;;;3.72;0.73;;;;;;;;;;5086346;28;20112;-63
2022/05/26 08:58:11;;;;;;;3.65;0.82;;;;;;;;;;5090388;28;20048;-64
2022/05/26 09:00:38;;;;;;;3.95;0.90;;;;;;;;;;5088866;28;20028;-63
2022/05/26 09:03:18;;;;;;;2.58;0.60;;;;;;;;;;5088286;28;20040;-63
2022/05/26 09:05:46;;;;;;;2.28;0.70;;;;;;;;;;5092465;28;20039;-63
2022/05/26 09:13:52;;;;;;;5.53;0.80;;;;;;;;;;5087868;28;20052;-63
2022/05/26 09:16:18;;;;;;;2.08;0.50;;;;;;;;;;5092298;28;20082;-63
2022/05/26 09:18:44;;;;;;;2.83;0.80;;;;;;;;;;5091364;28;20505;-63
2022/05/26 09:21:13;;;;;;;5.30;0.88;;;;;;;;;;5089922;28;20043;-63
2022/05/26 09:23:42;;;;;;;4.95;1.10;;;;;;;;;;5090611;28;20032;-62
2022/05/26 09:26:11;;;;;;;2.80;0.70;;;;;;;;;;5090450;28;20074;-62
2022/05/26 09:28:48;;;;;;;4.13;0.90;;;;;;;;;;5091276;28;20043;-63
2022/05/26 09:31:23;;;;;;;4.13;1.00;;;;;;;;;;5090317;28;20058;-63
2022/05/26 09:34:01;;;;;;;4.05;0.70;;;;;;;;;;5085104;28;20044;-63
2022/05/26 09:36:29;;;;;;;3.63;0.70;;;;;;;;;;5087254;28;20215;-63
2022/05/26 09:38:55;;;;;;;3.40;0.73;;;;;;;;;;5090892;28;20434;-63
2022/05/26 09:41:21;;;;;;;3.58;0.60;;;;;;;;;;5087480;28;20693;-63
2022/05/26 09:43:53;;;;;;;3.17;0.70;;;;;;;;;;5087043;28;20044;-63
2022/05/26 09:46:22;;;;;;;6.72;0.85;;;;;;;;;;5086821;28;20098;-63
2022/05/26 09:48:51;;;;;;;3.47;0.50;;;;;;;;;;5088356;28;20039;-62
2022/05/26 09:51:23;;;;;;;1.45;0.77;;;;;;;;;;5087855;28;20055;-63
2022/05/26 09:53:53;;;;;;;6.38;1.08;;;;;;;;;;5085658;28;20512;-62
2022/05/26 09:56:28;;;;;;;3.42;0.93;;;;;;;;;;5088036;28;20036;-63
2022/05/26 09:58:55;;;;;;;5.22;0.70;;;;;;;;;;5090186;28;20070;-62
2022/05/26 10:01:23;;;;;;;3.40;1.15;;;;;;;;;;5091443;28;20465;-63
2022/05/26 10:03:55;;;;;;;2.42;0.65;;;;;;;;;;5086493;28;20306;-63
2022/05/26 10:06:30;;;;;;;2.63;0.60;;;;;;;;;;5084019;28;20067;-63
2022/05/26 10:09:01;;;;;;;4.28;0.80;;;;;;;;;;5087590;28;20093;-63
2022/05/26 10:11:27;;;;;;;5.63;0.80;;;;;;;;;;5089072;28;20028;-63
2022/05/26 10:13:59;;;;;;;2.15;0.50;;;;;;;;;;5091509;28;20039;-63
2022/05/26 10:16:43;;;;;;;2.47;0.75;;;;;;;;;;5089465;28;20088;-63
2022/05/26 10:19:18;;;;;;;4.85;0.68;;;;;;;;;;5085170;28;20101;-63
2022/05/26 10:21:44;;;;;;;3.30;0.70;;;;;;;;;;5082564;28;20043;-63
2022/05/26 10:24:31;;;;;;;3.60;0.60;;;;;;;;;;5090329;28;20051;-63
2022/05/26 10:27:05;;;;;;;3.17;0.75;;;;;;;;;;5087924;28;20097;-63
2022/05/26 10:29:50;;;;;;;3.80;0.90;;;;;;;;;;5090009;28;20070;-63
2022/05/26 10:32:30;;;;;;;5.25;0.70;;;;;;;;;;5088440;28;20070;-63
2022/05/26 10:35:05;;;;;;;5.23;0.87;;;;;;;;;;5085761;28;20459;-63
2022/05/26 10:37:39;;;;;;;4.50;1.00;;;;;;;;;;5086299;28;20032;-63
2022/05/26 10:40:06;;;;;;;5.32;1.00;;;;;;;;;;5086987;28;20067;-62
2022/05/26 10:42:46;;;;;;;1.90;0.73;;;;;;;;;;5085903;28;20036;-63
2022/05/26 10:45:14;;;;;;;3.63;0.87;;;;;;;;;;5082886;28;20029;-63
2022/05/26 10:47:45;;;;;;;3.95;0.98;;;;;;;;;;5084585;28;20072;-62
2022/05/26 10:50:16;;;;;;;1.98;0.73;;;;;;;;;;5083774;28;20408;-63
2022/05/26 10:52:45;;;;;;;3.90;0.80;;;;;;;;;;5088621;28;20482;-63
2022/05/26 10:55:14;;;;;;;2.28;0.85;;;;;;;;;;5087651;28;20501;-63
2022/05/26 10:57:40;;;;;;;2.50;1.00;;;;;;;;;;5089210;28;20040;-63
2022/05/26 11:00:08;;;;;;;3.40;0.98;;;;;;;;;;5084618;28;20042;-63
2022/05/26 11:02:37;;;;;;;2.63;0.80;;;;;;;;;;5088332;28;20036;-63
2022/05/26 11:05:05;;;;;;;3.63;1.00;;;;;;;;;;5089865;28;20036;-63
2022/05/26 11:07:33;;;;;;;5.55;1.45;;;;;;;;;;5091310;28;20127;-63
2022/05/26 11:10:04;;;;;;;5.35;1.10;;;;;;;;;;5091243;28;20521;-63
2022/05/26 11:12:34;;;;;;;4.07;1.00;;;;;;;;;;5088467;28;20055;-63
2022/05/26 11:18:00;;;;;;;2.72;1.20;;;;;;;;;;5091356;28;20489;-63
2022/05/26 11:20:28;;;;;;;4.07;1.17;;;;;;;;;;5089683;28;20039;-63
2022/05/26 11:22:54;;;;;;;4.70;1.30;;;;;;;;;;5090806;28;20032;-63
2022/05/26 11:25:25;;;;;;;3.88;1.40;;;;;;;;;;5091349;28;20127;-63
2022/05/26 11:27:54;;;;;;;4.78;1.20;;;;;;;;;;5090193;28;20459;-63
2022/05/26 11:36:09;;;;;;;3.95;1.30;;;;;;;;;;5090799;28;20407;-63
2022/05/26 11:38:40;;;;;;;4.65;0.93;;;;;;;;;;5091300;28;20123;-63
2022/05/26 11:41:07;;;;;;;2.45;0.90;;;;;;;;;;5089994;28;20473;-63
2022/05/26 11:43:45;;;;;;;3.17;1.05;;;;;;;;;;5091821;28;20036;-63
2022/05/26 11:46:11;;;;;;;4.03;1.02;;;;;;;;;;5094167;28;20489;-63
2022/05/26 11:48:39;;;;;;;7.03;1.30;;;;;;;;;;5093383;28;20094;-63
2022/05/26 11:51:26;;;;;;;3.53;0.77;;;;;;;;;;5094538;28;20118;-63
2022/05/26 11:53:52;;;;;;;3.90;0.80;;;;;;;;;;5086919;28;20052;-63
2022/05/26 11:56:30;;;;;;;2.85;1.05;;;;;;;;;;5093004;28;20101;-63
2022/05/26 11:59:15;;;;;;;4.38;0.80;;;;;;;;;;5094614;28;20126;-63
2022/05/26 12:01:45;;;;;;;3.55;0.70;;;;;;;;;;5093308;28;20036;-63
2022/05/26 12:04:10;;;;;;;1.85;0.63;;;;;;;;;;5085695;28;20042;-63
2022/05/26 12:06:41;;;;;;;3.38;0.60;;;;;;;;;;5093849;28;20400;-63
2022/05/26 12:09:20;;;;;;;4.18;0.70;;;;;;;;;;5093525;28;20039;-63
2022/05/26 12:11:52;;;;;;;3.53;0.73;;;;;;;;;;5094412;28;20065;-63
2022/05/26 12:14:21;;;;;;;4.47;0.77;;;;;;;;;;5091805;28;20443;-63
2022/05/26 12:16:47;;;;;;;2.75;1.00;;;;;;;;;;5093688;28;20040;-64
2022/05/26 12:19:13;;;;;;;6.05;0.90;;;;;;;;;;5092793;28;20034;-63
2022/05/26 12:21:43;;;;;;;3.78;0.93;;;;;;;;;;5088099;28;20093;-63
2022/05/26 12:24:28;;;;;;;2.75;0.77;;;;;;;;;;5085428;28;20527;-63
2022/05/26 12:26:55;;;;;;;4.05;0.88;;;;;;;;;;5093616;28;20080;-63
2022/05/26 12:29:39;;;;;;;3.63;1.10;;;;;;;;;;5093490;28;20086;-63
2022/05/26 12:32:09;;;;;;;3.55;0.85;;;;;;;;;;5093800;28;20123;-63
2022/05/26 12:34:43;;;;;;;2.90;0.80;;;;;;;;;;5115242;22;20120;-65
2022/05/26 12:37:16;;;;;;;7.20;1.08;;;;;;;;;;5099928;28;20043;-65
2022/05/26 12:39:45;;;;;;;4.75;1.05;;;;;;;;;;5096951;28;20127;-65
2022/05/26 12:42:21;;;;;;;6.22;1.00;;;;;;;;;;5093258;28;20131;-64
2022/05/26 12:45:06;;;;;;;2.50;0.80;;;;;;;;;;5082620;28;20033;-65
2022/05/26 12:47:34;;;;;;;5.50;1.00;;;;;;;;;;5077561;28;20046;-65
2022/05/26 12:50:08;;;;;;;2.92;0.90;;;;;;;;;;5084142;28;20519;-65
2022/05/26 12:52:37;;;;;;;4.53;0.95;;;;;;;;;;5093323;28;20040;-65
2022/05/26 12:55:14;;;;;;;4.10;0.95;;;;;;;;;;5092297;28;20054;-65
2022/05/26 12:57:42;;;;;;;5.70;1.00;;;;;;;;;;5093173;28;20044;-65
2022/05/26 13:00:23;;;;;;;6.47;1.20;;;;;;;;;;5093394;28;20043;-65
2022/05/26 13:02:51;;;;;;;2.83;0.90;;;;;;;;;;5085518;28;20075;-65
2022/05/26 13:05:17;;;;;;;5.68;0.93;;;;;;;;;;5091091;28;20113;-65
2022/05/26 13:07:46;;;;;;;4.03;1.00;;;;;;;;;;5092844;28;20086;-65
2022/05/26 13:10:14;;;;;;;7.97;1.30;;;;;;;;;;5093068;28;20039;-65
2022/05/26 13:12:40;;;;;;;4.57;0.90;;;;;;;;;;5092404;28;20043;-65
2022/05/26 13:15:06;;;;;;;6.30;1.30;;;;;;;;;;5089377;28;20089;-65
2022/05/26 13:17:32;;;;;;;2.80;0.90;;;;;;;;;;5074615;28;20119;-65
2022/05/26 13:20:00;;;;;;;6.43;1.58;;;;;;;;;;5090229;28;20040;-65
2022/05/26 13:22:31;;;;;;;3.95;1.13;;;;;;;;;;5092718;28;20036;-65
2022/05/26 13:24:57;;;;;;;;;;;;;;;;;;5093196;28;20075;-65
2022/05/26 13:27:24;;;;;;;6.00;1.45;;;;;;;;;;5092487;28;19958;-65
2022/05/26 13:29:52;;;;;;;6.13;1.25;;;;;;;;;;5092302;28;20036;-65
2022/05/26 13:35:18;;;;;;;6.88;1.30;;;;;;;;;;5092268;28;20044;-65
2022/05/26 13:37:44;;;;;;;4.57;0.98;;;;;;;;;;5092213;28;20404;-65
2022/05/26 13:40:19;;;;;;;5.20;1.05;;;;;;;;;;5092479;28;20040;-65
2022/05/26 13:42:49;;;;;;;6.85;1.35;;;;;;;;;;5092589;28;20504;-64
2022/05/26 13:45:24;;;;;;;6.80;1.30;;;;;;;;;;5090648;28;20040;-64
2022/05/26 13:47:51;;;;;;;6.28;1.38;;;;;;;;;;5086734;28;20403;-65
2022/05/26 13:50:28;;;;;;;5.95;1.50;;;;;;;;;;5092403;28;20071;-65
2022/05/26 13:52:54;;;;;;;4.63;1.30;;;;;;;;;;5092360;28;20096;-65
2022/05/26 13:55:21;;;;;;;6.63;1.50;;;;;;;;;;5091877;28;20040;-65
2022/05/26 13:57:49;;;;;;;6.93;1.10;;;;;;;;;;5092098;28;20044;-65
2022/05/26 14:00:15;;;;;;;4.43;1.20;;;;;;;;;;5087333;28;20440;-65
2022/05/26 14:02:49;;;;;;;5.10;1.20;;;;;;;;;;5091284;28;20036;-65
2022/05/26 14:05:15;;;;;;;5.75;1.00;;;;;;;;;;5071603;28;20092;-65
2022/05/26 14:07:42;;;;;;;8.43;1.63;;;;;;;;;;5072125;28;20117;-65
2022/05/26 14:10:18;;;;;;;6.45;1.60;;;;;;;;;;5073698;28;20055;-65
2022/05/26 14:12:47;;;;;;;5.18;1.20;;;;;;;;;;5083149;28;20531;-65
2022/05/26 14:15:13;;;;;;;5.47;1.48;;;;;;;;;;5089755;28;20517;-65
2022/05/26 14:17:41;;;;;;;6.57;1.63;;;;;;;;;;5082739;28;20047;-65
2022/05/26 14:20:29;;;;;;;5.00;1.35;;;;;;;;;;5091649;28;20126;-65
2022/05/26 14:22:56;;;;;;;4.43;1.27;;;;;;;;;;5091869;28;20047;-65
2022/05/26 14:25:23;;;;;;;5.95;1.73;;;;;;;;;;5084724;28;20121;-65
2022/05/26 14:27:51;;;;;;;10.60;1.65;;;;;;;;;;5088684;28;20584;-65
2022/05/26 14:30:39;;;;;;;6.05;1.75;;;;;;;;;;5088820;28;20067;-65
2022/05/26 14:33:09;;;;;;;5.32;1.60;;;;;;;;;;5080128;28;20051;-65
2022/05/26 14:35:35;;;;;;;6.65;1.67;;;;;;;;;;5087939;28;20028;-64
2022/05/26 14:38:01;;;;;;;5.53;1.63;;;;;;;;;;5086404;28;20486;-65
2022/05/26 14:40:27;;;;;;;6.07;1.60;;;;;;;;;;5079842;28;20398;-65
2022/05/26 14:42:53;;;;;;;5.50;1.60;;;;;;;;;;5076666;28;20424;-65
2022/05/26 14:45:20;;;;;;;5.32;1.50;;;;;;;;;;5080250;28;20032;-65
2022/05/26 14:47:46;;;;;;;4.70;1.42;;;;;;;;;;5085259;28;20044;-64
2022/05/26 14:50:12;;;;;;;7.70;1.70;;;;;;;;;;5084994;28;20093;-65
2022/05/26 14:52:39;;;;;;;7.22;1.60;;;;;;;;;;5080615;28;20036;-65
2022/05/26 14:57:53;;;;;;;7.05;1.58;;;;;;;;;;5081965;28;20490;-64
2022/05/26 15:00:20;;;;;;;7.47;1.50;;;;;;;;;;5081792;28;20721;-65
2022/05/26 15:02:46;;;;;;;7.00;1.70;;;;;;;;;;5075733;28;20054;-65
2022/05/26 15:05:13;;;;;;;4.68;1.60;;;;;;;;;;5080992;28;20032;-65
2022/05/26 15:07:39;;;;;;;6.10;1.70;;;;;;;;;;5076239;28;20048;-65
2022/05/26 15:10:06;;;;;;;7.95;1.65;;;;;;;;;;5079026;28;20048;-65
2022/05/26 15:12:34;;;;;;;4.93;1.50;;;;;;;;;;5085725;28;20063;-65
2022/05/26 15:15:00;;;;;;;8.82;1.92;;;;;;;;;;5088472;28;20118;-65
2022/05/26 15:17:27;;;;;;;6.68;1.67;;;;;;;;;;5083360;28;20032;-65
2022/05/26 15:19:54;;;;;;;6.20;1.60;;;;;;;;;;5092326;28;20071;-64
2022/05/26 15:22:21;;;;;;;9.10;1.67;;;;;;;;;;5093733;28;20040;-64
2022/05/26 15:24:47;;;;;;;4.95;1.27;;;;;;;;;;5084653;28;20666;-65
2022/05/26 15:27:15;;;;;;;5.70;1.50;;;;;;;;;;5090590;28;20419;-65
2022/05/26 15:29:41;;;;;;;7.30;1.67;;;;;;;;;;5093257;28;20043;-65
2022/05/26 15:32:08;;;;;;;5.63;1.67;;;;;;;;;;5090763;28;20062;-64
2022/05/26 15:34:34;;;;;;;8.38;1.42;;;;;;;;;;5090655;28;20050;-64